createdAt,value
2018-05-06T00:02:56.567Z,96.70
2018-05-06T00:07:30.513Z,97.20
2018-05-06T00:12:03.697Z,97.20
2018-05-06T00:16:37.621Z,95.90
2018-05-06T00:21:11.576Z,95.70
2018-05-06T00:25:44.790Z,95.60
2018-05-06T00:30:18.019Z,95.80
2018-05-06T00:34:51.193Z,95.80
2018-05-06T00:39:24.374Z,95.10
2018-05-06T00:43:58.334Z,94.50
2018-05-06T00:48:31.490Z,94.50
2018-05-06T00:53:04.670Z,94.30
2018-05-06T00:57:37.850Z,94.60
2018-05-06T01:02:11.005Z,94.50
2018-05-06T01:06:44.184Z,94.30
2018-05-06T01:11:17.381Z,94.30
2018-05-06T01:15:50.539Z,94.70
2018-05-06T01:20:24.495Z,95.20
2018-05-06T01:24:57.686Z,95.20
2018-05-06T01:29:30.882Z,95.80
2018-05-06T01:34:04.857Z,96.10
2018-05-06T01:38:38.015Z,96.00
2018-05-06T01:43:11.974Z,95.20
2018-05-06T01:47:45.138Z,95.20
2018-05-06T01:52:19.135Z,95.10
2018-05-06T01:56:52.690Z,95.10
2018-05-06T02:01:26.655Z,94.20
2018-05-06T02:05:59.833Z,94.20
2018-05-06T02:10:33.070Z,94.00
2018-05-06T02:15:06.226Z,94.10
2018-05-06T02:19:40.462Z,95.10
2018-05-06T02:24:14.430Z,95.40
2018-05-06T02:28:47.585Z,95.30
2018-05-06T02:33:21.537Z,96.20
2018-05-06T02:37:54.733Z,96.20
2018-05-06T02:42:27.925Z,95.90
2018-05-06T02:47:01.123Z,96.10
2018-05-06T02:51:35.082Z,96.30
2018-05-06T02:56:08.267Z,96.30
2018-05-06T03:00:42.217Z,97.60
2018-05-06T03:05:15.404Z,97.50
2018-05-06T03:09:48.571Z,98.20
2018-05-06T03:14:21.753Z,98.70
2018-05-06T03:18:54.943Z,99.00
2018-05-06T03:23:28.122Z,99.30
2018-05-06T03:28:02.066Z,99.80
2018-05-06T03:32:35.254Z,99.80
2018-05-06T03:37:09.180Z,99.90
2018-05-06T03:41:42.368Z,99.90
2018-05-06T03:46:16.320Z,99.90
2018-05-06T03:50:49.475Z,99.90
2018-05-06T03:55:22.654Z,99.90
2018-05-06T04:00:07.624Z,99.90
2018-05-06T04:04:40.926Z,99.90
2018-05-06T04:09:14.984Z,99.90
2018-05-06T04:13:48.551Z,99.90
2018-05-06T04:18:22.548Z,99.90
2018-05-06T04:22:55.730Z,99.90
2018-05-06T04:27:28.890Z,99.90
2018-05-06T04:32:02.834Z,99.90
2018-05-06T04:36:36.023Z,99.90
2018-05-06T04:41:09.238Z,99.90
2018-05-06T04:45:42.428Z,99.90
2018-05-06T04:50:16.554Z,99.90
2018-05-06T04:54:50.563Z,99.90
2018-05-06T04:59:23.818Z,99.90
2018-05-06T05:03:57.010Z,99.60
2018-05-06T05:08:30.167Z,99.30
2018-05-06T05:13:03.370Z,98.90
2018-05-06T05:17:36.666Z,98.50
2018-05-06T05:22:09.826Z,97.90
2018-05-06T05:26:43.819Z,97.00
2018-05-06T05:31:17.574Z,97.00
2018-05-06T05:35:50.777Z,96.10
2018-05-06T05:40:24.730Z,95.10
2018-05-06T05:44:57.914Z,95.10
2018-05-06T05:49:31.106Z,94.50
2018-05-06T05:54:05.067Z,93.80
2018-05-06T05:58:38.254Z,93.70
2018-05-06T06:03:11.434Z,93.20
2018-05-06T06:07:45.406Z,92.60
2018-05-06T06:12:18.574Z,92.60
2018-05-06T06:16:52.529Z,91.80
2018-05-06T06:21:25.713Z,91.70
2018-05-06T06:25:59.663Z,90.80
2018-05-06T06:30:32.826Z,90.80
2018-05-06T06:35:06.779Z,89.60
2018-05-06T06:39:39.973Z,89.60
2018-05-06T06:44:13.942Z,87.80
2018-05-06T06:48:47.129Z,87.80
2018-05-06T06:53:20.310Z,87.10
2018-05-06T06:57:54.266Z,84.80
2018-05-06T07:02:27.450Z,84.80
2018-05-06T07:07:00.683Z,83.20
2018-05-06T07:11:33.873Z,82.10
2018-05-06T07:16:07.078Z,81.10
2018-05-06T07:20:40.402Z,80.30
2018-05-06T07:25:13.610Z,78.10
2018-05-06T07:29:46.795Z,77.50
2018-05-06T07:34:19.990Z,77.80
2018-05-06T07:38:53.934Z,74.10
2018-05-06T07:43:27.126Z,74.00
2018-05-06T07:48:01.078Z,70.00
2018-05-06T07:52:34.643Z,70.00
2018-05-06T07:57:08.605Z,68.90
2018-05-06T08:01:41.764Z,68.80
2018-05-06T08:06:14.951Z,65.70
2018-05-06T08:10:48.185Z,65.10
2018-05-06T08:15:21.362Z,58.40
2018-05-06T08:19:54.990Z,54.20
2018-05-06T08:24:28.938Z,48.50
2018-05-06T08:29:02.959Z,46.30
2018-05-06T08:33:36.886Z,44.10
2018-05-06T08:38:10.834Z,41.90
2018-05-06T08:42:44.029Z,41.80
2018-05-06T08:47:17.191Z,41.20
2018-05-06T08:51:51.826Z,40.10
2018-05-06T08:56:25.230Z,39.50
2018-05-06T09:00:58.753Z,39.80
2018-05-06T09:05:32.092Z,39.20
2018-05-06T09:10:06.050Z,37.00
2018-05-06T09:14:39.274Z,36.80
2018-05-06T09:19:12.461Z,37.40
2018-05-06T09:23:46.209Z,38.10
2018-05-06T09:28:20.934Z,36.40
2018-05-06T09:32:54.118Z,36.30
2018-05-06T09:37:27.561Z,38.20
2018-05-06T09:42:00.722Z,39.80
2018-05-06T09:46:34.674Z,36.00
2018-05-06T09:51:07.853Z,36.50
2018-05-06T09:55:41.926Z,34.00
2018-05-06T10:00:15.110Z,33.90
2018-05-06T10:04:48.340Z,34.50
2018-05-06T10:09:21.786Z,34.70
2018-05-06T10:13:56.477Z,34.40
2018-05-06T10:18:29.662Z,34.40
2018-05-06T10:23:03.179Z,34.10
2018-05-06T10:27:36.590Z,33.60
2018-05-06T10:32:09.776Z,34.20
2018-05-06T10:36:43.725Z,32.50
2018-05-06T10:41:16.907Z,32.80
2018-05-06T10:45:50.160Z,33.70
2018-05-06T10:50:23.391Z,33.30
2018-05-06T10:54:56.614Z,32.40
2018-05-06T10:59:29.984Z,32.00
2018-05-06T11:04:03.334Z,30.80
2018-05-06T11:08:37.175Z,31.40
2018-05-06T11:13:11.478Z,32.30
2018-05-06T11:17:44.665Z,32.20
2018-05-06T11:22:17.853Z,33.00
2018-05-06T11:26:51.159Z,32.60
2018-05-06T11:31:24.490Z,31.20
2018-05-06T11:35:57.674Z,30.70
2018-05-06T11:40:30.875Z,30.20
2018-05-06T11:45:04.081Z,30.40
2018-05-06T11:49:37.266Z,29.10
2018-05-06T11:54:11.215Z,30.80
2018-05-06T11:58:44.397Z,30.70
2018-05-06T12:03:18.357Z,31.30
2018-05-06T12:07:51.515Z,31.30
2018-05-06T12:12:24.706Z,30.60
2018-05-06T12:16:57.919Z,29.20
2018-05-06T12:21:31.283Z,28.90
2018-05-06T12:26:04.465Z,29.20
2018-05-06T12:30:38.429Z,29.70
2018-05-06T12:35:11.636Z,29.60
2018-05-06T12:39:44.818Z,31.10
2018-05-06T12:44:18.002Z,32.50
2018-05-06T12:48:51.951Z,30.00
2018-05-06T12:53:25.246Z,30.00
2018-05-06T12:57:58.435Z,30.20
2018-05-06T13:02:32.377Z,28.30
2018-05-06T13:07:05.570Z,28.20
2018-05-06T13:11:39.503Z,29.80
2018-05-06T13:16:12.689Z,29.80
2018-05-06T13:20:46.618Z,31.50
2018-05-06T13:25:20.617Z,31.20
2018-05-06T13:29:53.817Z,31.10
2018-05-06T13:34:27.014Z,33.00
2018-05-06T13:39:00.217Z,34.20
2018-05-06T13:43:34.669Z,33.70
2018-05-06T13:48:08.111Z,34.60
2018-05-06T13:52:42.136Z,36.80
2018-05-06T13:57:15.683Z,36.70
2018-05-06T14:01:49.246Z,36.70
2018-05-06T14:06:22.471Z,37.10
2018-05-06T14:10:55.885Z,36.50
2018-05-06T14:15:30.323Z,36.70
2018-05-06T14:20:04.878Z,37.10
2018-05-06T14:24:38.826Z,38.10
2018-05-06T14:29:12.012Z,38.00
2018-05-06T14:33:45.226Z,36.90
2018-05-06T14:38:18.605Z,38.10
2018-05-06T14:42:51.829Z,36.50
2018-05-06T14:47:36.967Z,34.00
2018-05-06T14:52:10.451Z,34.50
2018-05-06T14:56:43.711Z,33.40
2018-05-06T15:01:17.152Z,33.40
2018-05-06T15:05:50.341Z,33.50
2018-05-06T15:10:24.408Z,33.60
2018-05-06T15:14:57.495Z,33.60
2018-05-06T15:19:30.708Z,34.20
2018-05-06T15:24:04.291Z,33.10
2018-05-06T15:28:37.489Z,34.30
2018-05-06T15:33:10.677Z,33.50
2018-05-06T15:37:43.919Z,34.60
2018-05-06T15:42:17.878Z,33.00
2018-05-06T15:46:51.047Z,32.90
2018-05-06T15:51:25.026Z,34.00
2018-05-06T15:55:58.185Z,34.00
2018-05-06T16:00:32.142Z,34.10
2018-05-06T16:05:05.321Z,34.00
2018-05-06T16:09:39.265Z,33.70
2018-05-06T16:14:13.170Z,33.70
2018-05-06T16:18:46.363Z,32.90
2018-05-06T16:23:20.310Z,33.60
2018-05-06T16:27:53.484Z,33.50
2018-05-06T16:32:26.702Z,34.00
2018-05-06T16:37:00.967Z,35.10
2018-05-06T16:41:34.153Z,35.00
2018-05-06T16:46:07.344Z,35.70
2018-05-06T16:50:41.306Z,35.40
2018-05-06T16:55:14.470Z,35.30
2018-05-06T16:59:48.476Z,36.60
2018-05-06T17:04:21.661Z,36.50
2018-05-06T17:08:54.859Z,35.90
2018-05-06T17:13:28.062Z,35.90
2018-05-06T17:18:01.268Z,35.60
2018-05-06T17:22:34.473Z,34.60
2018-05-06T17:27:07.770Z,34.50
2018-05-06T17:31:41.002Z,34.50
2018-05-06T17:36:14.166Z,34.90
2018-05-06T17:40:49.619Z,34.20
2018-05-06T17:45:23.125Z,34.40
2018-05-06T17:49:57.179Z,34.20
2018-05-06T17:54:31.076Z,35.40
2018-05-06T17:59:05.266Z,35.10
2018-05-06T18:03:38.484Z,35.00
2018-05-06T18:08:11.661Z,35.50
2018-05-06T18:12:44.855Z,35.30
2018-05-06T18:17:18.042Z,36.00
2018-05-06T18:21:51.219Z,36.30
2018-05-06T18:26:24.802Z,37.10
2018-05-06T18:30:59.494Z,38.00
2018-05-06T18:35:33.448Z,38.20
2018-05-06T18:40:06.626Z,38.20
2018-05-06T18:44:40.591Z,38.90
2018-05-06T18:49:13.791Z,38.90
2018-05-06T18:53:46.978Z,39.00
2018-05-06T18:58:20.191Z,39.40
2018-05-06T19:02:53.378Z,39.90
2018-05-06T19:07:27.387Z,41.20
2018-05-06T19:12:00.606Z,41.20
2018-05-06T19:16:34.603Z,42.50
2018-05-06T19:21:08.568Z,43.50
2018-05-06T19:25:42.643Z,44.20
2018-05-06T19:30:15.838Z,44.10
2018-05-06T19:34:49.008Z,44.80
2018-05-06T19:39:22.984Z,50.60
2018-05-06T19:43:57.176Z,50.50
2018-05-06T19:48:30.387Z,54.30
2018-05-06T19:53:03.574Z,56.90
2018-05-06T19:57:36.866Z,58.80
2018-05-06T20:02:10.827Z,63.00
2018-05-06T20:06:44.015Z,62.80
2018-05-06T20:11:17.316Z,65.20
2018-05-06T20:15:50.661Z,68.20
2018-05-06T20:20:23.857Z,70.40
2018-05-06T20:24:57.539Z,72.70
2018-05-06T20:29:31.513Z,75.70
2018-05-06T20:34:04.787Z,75.60
2018-05-06T20:38:38.827Z,79.70
2018-05-06T20:43:11.994Z,79.60
2018-05-06T20:47:45.178Z,81.30
2018-05-06T20:52:18.312Z,82.30
2018-05-06T20:56:52.302Z,84.70
2018-05-06T21:01:25.538Z,84.60
2018-05-06T21:05:59.477Z,87.10
2018-05-06T21:10:33.542Z,87.50
2018-05-06T21:15:06.649Z,87.40
2018-05-06T21:19:39.781Z,88.10
2018-05-06T21:24:12.946Z,89.20
2018-05-06T21:28:46.194Z,90.60
2018-05-06T21:33:19.392Z,91.50
2018-05-06T21:37:52.570Z,91.30
2018-05-06T21:42:25.718Z,91.50
2018-05-06T21:46:58.869Z,91.90
2018-05-06T21:51:32.796Z,92.50
2018-05-06T21:56:05.946Z,93.40
2018-05-06T22:00:39.121Z,93.70
2018-05-06T22:05:13.115Z,94.00
2018-05-06T22:09:46.253Z,94.30
2018-05-06T22:14:19.413Z,94.20
2018-05-06T22:18:53.336Z,94.10
2018-05-06T22:23:27.264Z,94.10
2018-05-06T22:28:01.172Z,94.20
2018-05-06T22:32:34.342Z,94.20
2018-05-06T22:37:07.500Z,94.30
2018-05-06T22:41:41.453Z,94.70
2018-05-06T22:46:14.719Z,94.70
2018-05-06T22:50:48.626Z,95.30
2018-05-06T22:55:21.791Z,95.10
2018-05-06T22:59:54.953Z,95.30
2018-05-06T23:04:28.105Z,95.40
2018-05-06T23:09:01.267Z,95.60
2018-05-06T23:13:34.421Z,95.80
2018-05-06T23:18:07.574Z,96.50
2018-05-06T23:22:41.528Z,96.80
2018-05-06T23:27:14.673Z,96.60
2018-05-06T23:31:47.829Z,96.80
2018-05-06T23:36:20.986Z,96.90
2018-05-06T23:40:54.165Z,96.90
2018-05-06T23:45:27.293Z,96.90
2018-05-06T23:50:00.453Z,97.00
2018-05-06T23:54:33.650Z,97.30
2018-05-06T23:59:07.569Z,97.70
